createdAt,value
2019-02-21T00:02:42.481Z,4.45
2019-02-21T00:07:44.062Z,4.46
2019-02-21T00:12:45.836Z,4.46
2019-02-21T00:17:47.933Z,4.52
2019-02-21T00:22:49.463Z,4.64
2019-02-21T00:27:51.030Z,4.74
2019-02-21T00:32:52.620Z,4.80
2019-02-21T00:37:54.270Z,4.84
2019-02-21T00:42:55.863Z,4.87
2019-02-21T00:47:57.748Z,4.89
2019-02-21T00:52:59.292Z,4.90
2019-02-21T00:58:00.836Z,4.89
2019-02-21T01:03:02.478Z,4.84
2019-02-21T01:08:04.081Z,4.79
2019-02-21T01:13:05.628Z,4.73
2019-02-21T01:18:07.536Z,4.65
2019-02-21T01:23:09.103Z,4.64
2019-02-21T01:28:11.014Z,4.64
2019-02-21T01:33:12.828Z,4.67
2019-02-21T01:38:14.429Z,4.70
2019-02-21T01:43:16.026Z,4.68
2019-02-21T01:48:17.626Z,4.64
2019-02-21T01:53:19.205Z,4.58
2019-02-21T01:58:20.730Z,4.52
2019-02-21T02:03:22.715Z,4.45
2019-02-21T02:08:24.297Z,4.39
2019-02-21T02:13:25.845Z,4.32
2019-02-21T02:18:27.411Z,4.29
2019-02-21T02:23:28.935Z,4.26
2019-02-21T02:28:30.451Z,4.25
2019-02-21T02:33:32.024Z,4.23
2019-02-21T02:38:33.668Z,4.18
2019-02-21T02:43:35.226Z,4.14
2019-02-21T02:48:36.850Z,4.09
2019-02-21T02:53:38.397Z,4.05
2019-02-21T02:58:39.958Z,3.98
2019-02-21T03:03:41.521Z,3.93
2019-02-21T03:08:43.161Z,3.88
2019-02-21T03:13:45.166Z,3.84
2019-02-21T03:18:46.688Z,3.79
2019-02-21T03:23:49.341Z,3.75
2019-02-21T03:28:50.838Z,3.76
2019-02-21T03:33:52.386Z,3.77
2019-02-21T03:38:54.287Z,3.73
2019-02-21T03:43:55.789Z,3.73
2019-02-21T03:48:57.690Z,3.77
2019-02-21T03:53:59.208Z,3.77
2019-02-21T03:59:00.777Z,3.77
2019-02-21T04:04:02.330Z,3.76
2019-02-21T04:09:06.461Z,3.72
2019-02-21T04:14:08.080Z,3.73
2019-02-21T04:19:09.608Z,3.75
2019-02-21T04:24:11.250Z,3.73
2019-02-21T04:29:12.785Z,3.72
2019-02-21T04:34:14.391Z,3.81
2019-02-21T04:39:15.961Z,3.82
2019-02-21T04:44:17.510Z,3.80
2019-02-21T04:49:19.069Z,3.80
2019-02-21T04:54:20.637Z,3.81
2019-02-21T04:59:22.208Z,3.81
2019-02-21T05:04:23.739Z,3.79
2019-02-21T05:09:27.291Z,3.79
2019-02-21T05:14:29.162Z,3.78
2019-02-21T05:19:30.791Z,3.81
2019-02-21T05:24:32.347Z,3.94
2019-02-21T05:29:34.233Z,4.06
2019-02-21T05:34:35.857Z,4.27
2019-02-21T05:39:37.487Z,4.41
2019-02-21T05:44:41.056Z,4.30
2019-02-21T05:49:42.729Z,4.21
2019-02-21T05:54:44.280Z,4.24
2019-02-21T05:59:45.845Z,4.24
2019-02-21T06:04:47.759Z,4.15
2019-02-21T06:09:49.445Z,4.06
2019-02-21T06:14:54.532Z,4.02
2019-02-21T06:19:56.387Z,4.02
2019-02-21T06:24:57.984Z,4.08
2019-02-21T06:29:59.613Z,4.23
2019-02-21T06:35:02.881Z,4.30
2019-02-21T06:40:04.703Z,4.33
2019-02-21T06:45:06.414Z,4.39
2019-02-21T06:50:08.050Z,4.45
2019-02-21T06:55:10.009Z,4.49
2019-02-21T07:00:11.581Z,4.55
2019-02-21T07:05:13.210Z,4.61
2019-02-21T07:10:14.811Z,4.68
2019-02-21T07:15:16.362Z,4.77
2019-02-21T07:20:17.954Z,4.86
2019-02-21T07:25:19.612Z,4.96
2019-02-21T07:30:23.272Z,5.08
2019-02-21T07:35:24.643Z,5.17
2019-02-21T07:40:26.162Z,5.22
2019-02-21T07:45:31.567Z,5.28
2019-02-21T07:50:33.110Z,5.36
2019-02-21T07:55:34.820Z,5.48
2019-02-21T08:00:36.388Z,5.60
2019-02-21T08:05:38.329Z,5.70
2019-02-21T08:10:39.880Z,5.86
2019-02-21T08:15:41.533Z,6.01
2019-02-21T08:20:43.448Z,6.10
2019-02-21T08:25:45.024Z,6.18
2019-02-21T08:30:46.930Z,6.29
2019-02-21T08:35:48.503Z,6.50
2019-02-21T08:40:50.089Z,6.62
2019-02-21T08:45:51.611Z,6.79
2019-02-21T08:50:53.218Z,6.92
2019-02-21T08:55:56.054Z,6.95
2019-02-21T09:00:57.752Z,6.88
2019-02-21T09:05:59.292Z,6.81
2019-02-21T09:11:01.192Z,6.95
2019-02-21T09:16:04.289Z,7.30
2019-02-21T09:21:05.853Z,7.93
2019-02-21T09:26:07.475Z,8.54
2019-02-21T09:31:09.013Z,8.94
2019-02-21T09:36:10.577Z,8.93
2019-02-21T09:41:12.128Z,8.78
2019-02-21T09:46:13.678Z,8.58
2019-02-21T09:51:18.190Z,8.53
2019-02-21T09:56:29.480Z,8.65
2019-02-21T10:01:22.622Z,8.72
2019-02-21T10:06:24.151Z,8.70
2019-02-21T10:11:25.859Z,8.59
2019-02-21T10:16:27.372Z,8.45
2019-02-21T10:21:28.956Z,8.46
2019-02-21T10:26:30.853Z,8.64
2019-02-21T10:31:32.465Z,8.92
2019-02-21T10:36:34.027Z,9.27
2019-02-21T10:41:35.646Z,9.42
2019-02-21T10:46:37.221Z,9.63
2019-02-21T10:51:39.047Z,9.60
2019-02-21T10:56:40.638Z,9.79
2019-02-21T11:01:42.250Z,10.07
2019-02-21T11:06:44.278Z,10.24
2019-02-21T11:11:45.863Z,10.37
2019-02-21T11:16:47.702Z,10.46
2019-02-21T11:21:49.284Z,10.52
2019-02-21T11:26:50.901Z,10.64
2019-02-21T11:31:52.821Z,10.84
2019-02-21T11:36:54.929Z,11.24
2019-02-21T11:41:56.783Z,11.30
2019-02-21T11:46:58.385Z,11.35
2019-02-21T11:52:09.882Z,11.34
2019-02-21T11:57:04.019Z,11.58
2019-02-21T12:02:05.592Z,11.84
2019-02-21T12:07:07.166Z,11.87
2019-02-21T12:12:10.484Z,11.78
2019-02-21T12:17:12.191Z,11.92
2019-02-21T12:22:13.749Z,12.12
2019-02-21T12:27:15.264Z,12.48
2019-02-21T12:32:16.929Z,12.58
2019-02-21T12:37:18.495Z,12.70
2019-02-21T12:42:20.074Z,12.57
2019-02-21T12:47:21.673Z,12.51
2019-02-21T12:52:23.280Z,12.40
2019-02-21T12:57:24.791Z,12.23
2019-02-21T13:02:26.355Z,12.30
2019-02-21T13:07:27.858Z,12.39
2019-02-21T13:12:29.435Z,12.38
2019-02-21T13:17:31.098Z,12.42
2019-02-21T13:22:32.653Z,12.50
2019-02-21T13:27:35.804Z,12.62
2019-02-21T13:32:37.363Z,12.68
2019-02-21T13:37:38.917Z,12.75
2019-02-21T13:42:40.494Z,12.83
2019-02-21T13:47:42.084Z,12.81
2019-02-21T13:52:43.957Z,12.82
2019-02-21T13:57:46.017Z,12.88
2019-02-21T14:02:47.567Z,12.87
2019-02-21T14:07:49.091Z,13.01
2019-02-21T14:12:50.713Z,12.93
2019-02-21T14:17:52.304Z,12.84
2019-02-21T14:22:53.843Z,12.89
2019-02-21T14:27:55.425Z,13.07
2019-02-21T14:32:57.037Z,12.94
2019-02-21T14:37:58.665Z,12.87
2019-02-21T14:43:00.209Z,12.67
2019-02-21T14:48:01.769Z,12.55
2019-02-21T14:53:03.344Z,12.51
2019-02-21T14:58:05.929Z,12.33
2019-02-21T15:03:07.893Z,12.25
2019-02-21T15:08:09.465Z,12.13
2019-02-21T15:13:11.011Z,12.06
2019-02-21T15:18:13.131Z,11.97
2019-02-21T15:23:14.815Z,11.85
2019-02-21T15:28:16.432Z,11.71
2019-02-21T15:33:18.405Z,11.64
2019-02-21T15:38:20.383Z,11.59
2019-02-21T15:43:22.038Z,11.41
2019-02-21T15:48:23.592Z,11.38
2019-02-21T15:53:25.200Z,11.14
2019-02-21T15:58:27.320Z,10.85
2019-02-21T16:03:28.877Z,10.61
2019-02-21T16:08:31.141Z,10.46
2019-02-21T16:13:36.123Z,10.39
2019-02-21T16:18:38.192Z,10.25
2019-02-21T16:23:39.768Z,10.15
2019-02-21T16:28:41.735Z,10.06
2019-02-21T16:33:43.282Z,10.06
2019-02-21T16:38:44.905Z,10.02
2019-02-21T16:43:46.721Z,9.91
2019-02-21T16:48:49.008Z,9.77
2019-02-21T16:53:50.568Z,9.74
2019-02-21T16:58:52.356Z,9.78
2019-02-21T17:03:55.307Z,9.77
2019-02-21T17:08:56.900Z,9.71
2019-02-21T17:13:58.940Z,9.63
2019-02-21T17:19:04.854Z,9.60
2019-02-21T17:24:07.418Z,9.53
2019-02-21T17:29:09.276Z,9.51
2019-02-21T17:34:11.202Z,9.45
2019-02-21T17:39:13.686Z,9.43
2019-02-21T17:44:15.620Z,9.42
2019-02-21T17:49:17.804Z,9.48
2019-02-21T17:54:20.445Z,9.49
2019-02-21T17:59:22.181Z,9.37
2019-02-21T18:04:23.908Z,9.52
2019-02-21T18:09:25.633Z,9.45
2019-02-21T18:14:27.203Z,9.42
2019-02-21T18:19:28.915Z,9.41
2019-02-21T18:24:30.560Z,9.41
2019-02-21T18:29:32.245Z,9.36
2019-02-21T18:34:33.875Z,9.29
2019-02-21T18:39:36.098Z,9.29
2019-02-21T18:44:37.787Z,9.31
2019-02-21T18:49:39.985Z,9.27
2019-02-21T18:54:42.072Z,9.27
2019-02-21T18:59:43.730Z,9.27
2019-02-21T19:04:45.596Z,9.22
2019-02-21T19:09:47.691Z,9.20
2019-02-21T19:14:49.280Z,9.21
2019-02-21T19:19:50.936Z,9.27
2019-02-21T19:24:52.501Z,9.30
2019-02-21T19:29:54.100Z,9.32
2019-02-21T19:34:55.823Z,9.38
2019-02-21T19:39:57.518Z,9.41
2019-02-21T19:44:59.282Z,9.43
2019-02-21T19:50:01.225Z,9.43
2019-02-21T19:55:02.988Z,9.44
2019-02-21T20:00:06.401Z,9.46
2019-02-21T20:05:07.944Z,9.45
2019-02-21T20:10:09.700Z,9.42
2019-02-21T20:15:11.426Z,9.42
2019-02-21T20:20:14.101Z,9.40
2019-02-21T20:25:15.680Z,9.36
2019-02-21T20:30:17.249Z,9.38
2019-02-21T20:35:19.206Z,9.39
2019-02-21T20:40:20.837Z,9.38
2019-02-21T20:45:24.726Z,9.41
2019-02-21T20:50:26.426Z,9.39
2019-02-21T20:55:28.790Z,9.38
2019-02-21T21:00:30.430Z,9.35
2019-02-21T21:05:32.033Z,9.30
2019-02-21T21:10:33.584Z,9.31
2019-02-21T21:15:35.738Z,9.28
2019-02-21T21:20:37.292Z,9.25
2019-02-21T21:25:38.841Z,9.22
2019-02-21T21:30:40.556Z,9.17
2019-02-21T21:35:42.545Z,9.12
2019-02-21T21:40:44.132Z,9.10
2019-02-21T21:45:45.816Z,9.08
2019-02-21T21:50:47.780Z,9.12
2019-02-21T21:55:49.465Z,9.13
2019-02-21T22:00:51.173Z,9.15
2019-02-21T22:05:52.762Z,9.13
2019-02-21T22:10:54.358Z,9.10
2019-02-21T22:15:56.086Z,9.10
2019-02-21T22:20:57.639Z,9.10
2019-02-21T22:25:59.643Z,9.05
2019-02-21T22:31:01.201Z,9.09
2019-02-21T22:36:02.767Z,9.08
2019-02-21T22:41:04.383Z,9.07
2019-02-21T22:46:05.935Z,9.06
2019-02-21T22:51:07.813Z,9.04
2019-02-21T22:56:09.386Z,8.99
2019-02-21T23:01:35.179Z,9.01
2019-02-21T23:06:52.790Z,8.95
2019-02-21T23:11:54.319Z,8.93
2019-02-21T23:16:55.952Z,8.95
2019-02-21T23:21:57.691Z,8.94
2019-02-21T23:26:59.296Z,8.96
2019-02-21T23:32:03.168Z,8.96
2019-02-21T23:37:04.702Z,8.95
2019-02-21T23:42:06.427Z,8.96
2019-02-21T23:47:08.107Z,8.97
2019-02-21T23:52:09.786Z,8.94
2019-02-21T23:57:11.485Z,8.95
